Airfield :







YOU CAN JOIN US ON...

 
LOGIN :

Register | Disclaimer

   EN    FR    IT 

 









Legend :    VFR   Marginal VFR   IFR   Intensive IFR   Very Intensive IFR
Visi :
Ceiling :
>= 8 km
>= 3000ft
5 to 8 km
1000 to 3000 ft
1500m to 5 km
500 to 1000 ft
800 to 1500m
200 to 500 ft
< 800m
< 200 ft
Symbols :   Thunderstorms  Fog  Heavy snow  Heavy precipitations  Wind > 20 kt






- Airport Elevation : 203 ft
- IATA code : YQY


CYQY - Sydney

CURRENT METAR :
  • 280354Z 15002KT 2SM BR FEW003 OVC007 12/12 A3016 RMK ST2ST6 SLP215

EXPIRED METARs :
  • 280319Z 15003KT 1SM R06/P6000FT/U BR FEW002 OVC008 12/12 A3017 RMK ST2ST6 SLP219
  • 280300Z 00000KT 3/8SM R06/2800V5500FT/U FG VV002 12/12 A3017 RMK FG8 SLP220
  • 280211Z 00000KT 1/4SM R06/2200FT/N FG VV002 11/11 A3019 RMK FG8 SLP226
  • 280200Z 00000KT 3/8SM R06/2400FT/N FG VV003 11/11 A3019 RMK FG8 SLP226
  • 280127Z VRB02KT 1/2SM R06/4500FT/D FG VV003 11/11 A3020 RMK FG8 SLP229
  • 280100Z 31002KT 3/8SM R06/3500FT/U FG VV003 11/11 A3020 RMK FG8 SLP229

TAF AMD TAF CYQY
Valid from the 28 at 00:00 until the 28 at 12:00 UTC


280005Z 2800/2812 VRB03KT 1/4SM -DZ FG OVC002
TEMPO 2800/2808 1SM BR OVC004
FM280800 21005KT 3/4SM -DZ BR OVC002
BECMG 2809/2811 24010KT P6SM NSW BKN050 RMK NXT FCST BY 280600Z
CZQM FIR / North America



MET'MAP, your aeronautical weather chart ! - Copyright ORBIFLY December 2007 - Disclaimer

ORBIFLY MET'MAP TEAM :

Programming & Development : Alexandra Zaïnal
Concept & original design : Baudouin d'Aumeries
Assistance for programming : Marc-Olivier Méhu
Technical & hardware support : Manuel Goepfert

Contact : metmap@orbifly.com




SOURCES & CREDITS :

   NOAA